Terminal Aerodrome Forecast
Issued by NWS Mt. Holly, NJ

Home | Current Version | Previous Version | Text Only | Print | Product List | Glossary On
Versions: 1 2 3 4 5 6 7 8 9 10 11 12 13 14 15 16 17
000
FTUS41 KPHI 072334
TAFABE
TAF
KABE 072334Z 0800/0824 23004KT P6SM SCT150
     FM081000 25004KT P6SM SCT025 BKN040
     FM081200 28006KT 4SM -SHRA BR OVC020
     FM081900 28006KT 5SM SHRA OVC035=

USA.gov is the U.S. government's official web portal to all federal, state and local government web resources and services.